createdAt,value
2022-09-16T00:01:18.359Z,14.37
2022-09-16T00:03:46.427Z,11.88
2022-09-16T00:06:24.693Z,14.77
2022-09-16T00:08:55.659Z,13.88
2022-09-16T00:11:25.498Z,14.32
2022-09-16T00:13:53.010Z,13.05
2022-09-16T00:16:25.635Z,13.85
2022-09-16T00:18:59.885Z,13.25
2022-09-16T00:21:30.061Z,13.50
2022-09-16T00:23:58.871Z,13.38
2022-09-16T00:26:26.258Z,14.43
2022-09-16T00:28:53.491Z,15.00
2022-09-16T00:31:20.859Z,15.27
2022-09-16T00:33:48.254Z,11.52
2022-09-16T00:36:20.083Z,10.90
2022-09-16T00:38:52.996Z,13.15
2022-09-16T00:41:25.658Z,10.02
2022-09-16T00:44:22.145Z,9.63
2022-09-16T00:46:51.018Z,10.88
2022-09-16T00:49:26.420Z,12.60
2022-09-16T00:52:05.988Z,10.40
2022-09-16T00:54:37.284Z,10.85
2022-09-16T00:57:08.033Z,10.02
2022-09-16T00:59:43.723Z,10.05
2022-09-16T01:02:19.217Z,9.98
2022-09-16T01:04:51.910Z,10.18
2022-09-16T01:07:29.108Z,10.48
2022-09-16T01:09:56.884Z,10.82
2022-09-16T01:12:27.438Z,11.38
2022-09-16T01:14:54.834Z,12.05
2022-09-16T01:18:10.313Z,11.05
2022-09-16T01:20:49.407Z,11.65
2022-09-16T01:24:07.798Z,13.30
2022-09-16T01:27:07.892Z,12.87
2022-09-16T01:30:16.000Z,11.95
2022-09-16T01:33:28.380Z,12.25
2022-09-16T01:36:22.222Z,14.43
2022-09-16T01:39:20.539Z,15.15
2022-09-16T01:42:16.083Z,13.73
2022-09-16T01:45:31.020Z,14.95
2022-09-16T01:48:31.814Z,15.10
2022-09-16T01:51:22.244Z,15.60
2022-09-16T01:54:10.460Z,15.05
2022-09-16T01:56:57.839Z,15.00
2022-09-16T01:59:44.317Z,15.20
2022-09-16T02:03:01.768Z,15.48
2022-09-16T02:05:48.222Z,15.30
2022-09-16T02:08:31.364Z,14.25
2022-09-16T02:11:05.168Z,17.48
2022-09-16T02:14:13.980Z,18.70
2022-09-16T02:16:59.402Z,19.63
2022-09-16T02:19:36.919Z,16.88
2022-09-16T02:22:17.765Z,15.38
2022-09-16T02:24:48.295Z,15.35
2022-09-16T02:27:22.717Z,18.30
2022-09-16T02:30:05.565Z,14.00
2022-09-16T02:32:38.995Z,15.57
2022-09-16T02:35:12.178Z,17.30
2022-09-16T02:38:01.873Z,16.85
2022-09-16T02:40:35.896Z,15.77
2022-09-16T02:43:03.870Z,18.05
2022-09-16T02:46:07.980Z,16.90
2022-09-16T02:49:05.995Z,16.67
2022-09-16T02:52:11.624Z,14.75
2022-09-16T02:54:41.851Z,16.05
2022-09-16T02:57:10.463Z,15.17
2022-09-16T02:59:39.242Z,16.70
2022-09-16T03:02:06.801Z,15.52
2022-09-16T03:04:36.112Z,14.45
2022-09-16T03:07:08.179Z,13.77
2022-09-16T03:09:42.028Z,17.80
2022-09-16T03:12:47.364Z,13.57
2022-09-16T03:15:50.749Z,15.60
2022-09-16T03:18:34.464Z,14.75
2022-09-16T03:21:22.834Z,10.85
2022-09-16T03:24:10.421Z,8.57
2022-09-16T03:26:49.861Z,12.48
2022-09-16T03:29:31.836Z,17.48
2022-09-16T03:32:19.019Z,12.83
2022-09-16T03:34:58.317Z,11.75
2022-09-16T03:37:32.228Z,10.18
2022-09-16T03:40:05.897Z,10.40
2022-09-16T03:42:33.583Z,10.45
2022-09-16T03:45:00.863Z,11.33
2022-09-16T03:47:28.093Z,9.90
2022-09-16T03:49:55.384Z,10.10
2022-09-16T03:52:22.695Z,8.20
2022-09-16T03:54:49.939Z,11.77
2022-09-16T03:57:17.353Z,7.30
2022-09-16T03:59:44.582Z,9.68
2022-09-16T04:02:11.908Z,9.73
2022-09-16T04:04:39.419Z,10.45
2022-09-16T04:07:06.672Z,11.18
2022-09-16T04:09:33.884Z,9.60
2022-09-16T04:12:02.339Z,8.02
2022-09-16T04:14:29.639Z,9.80
2022-09-16T04:16:56.880Z,9.47
2022-09-16T04:19:24.864Z,9.88
2022-09-16T04:21:52.386Z,9.63
2022-09-16T04:24:19.863Z,9.73
2022-09-16T04:26:47.110Z,10.80
2022-09-16T04:29:14.755Z,8.75
2022-09-16T04:31:42.030Z,7.80
2022-09-16T04:34:12.579Z,9.63
2022-09-16T04:36:39.939Z,9.32
2022-09-16T04:39:07.495Z,9.20
2022-09-16T04:41:34.785Z,10.75
2022-09-16T04:44:02.407Z,8.70
2022-09-16T04:46:32.515Z,10.98
2022-09-16T04:49:00.739Z,9.43
2022-09-16T04:51:29.414Z,12.38
2022-09-16T04:53:57.303Z,11.27
2022-09-16T04:56:28.529Z,8.93
2022-09-16T04:59:00.604Z,8.50
2022-09-16T05:01:35.380Z,7.97
2022-09-16T05:04:07.520Z,8.32
2022-09-16T05:06:39.851Z,9.57
2022-09-16T05:09:11.777Z,13.40
2022-09-16T05:11:41.076Z,9.73
2022-09-16T05:14:14.945Z,9.02
2022-09-16T05:16:42.545Z,9.50
2022-09-16T05:19:12.459Z,11.20
2022-09-16T05:21:42.074Z,6.25
2022-09-16T05:24:12.666Z,6.97
2022-09-16T05:26:45.221Z,12.07
2022-09-16T05:29:17.426Z,10.30
2022-09-16T05:31:47.767Z,8.02
2022-09-16T05:34:23.475Z,7.03
2022-09-16T05:36:54.000Z,12.00
2022-09-16T05:39:25.254Z,6.87
2022-09-16T05:41:58.841Z,8.77
2022-09-16T05:44:28.631Z,17.77
2022-09-16T05:46:56.298Z,13.67
2022-09-16T05:49:25.797Z,9.23
2022-09-16T05:51:54.065Z,14.02
2022-09-16T05:54:25.479Z,9.97
2022-09-16T05:56:52.906Z,9.82
2022-09-16T05:59:20.237Z,9.63
2022-09-16T06:01:47.528Z,10.35
2022-09-16T06:04:16.879Z,12.73
2022-09-16T06:06:47.184Z,11.27
2022-09-16T06:09:23.172Z,7.90
2022-09-16T06:11:56.857Z,9.80
2022-09-16T06:14:25.356Z,9.93
2022-09-16T06:16:52.607Z,10.82
2022-09-16T06:19:20.540Z,8.48
2022-09-16T06:21:48.791Z,9.93
2022-09-16T06:24:20.899Z,8.45
2022-09-16T06:26:49.565Z,7.38
2022-09-16T06:29:19.964Z,8.52
2022-09-16T06:31:47.247Z,7.20
2022-09-16T06:34:18.653Z,8.30
2022-09-16T06:36:46.714Z,8.32
2022-09-16T06:39:17.045Z,7.88
2022-09-16T06:41:44.746Z,7.55
2022-09-16T06:44:12.029Z,9.27
2022-09-16T06:46:39.323Z,11.27
2022-09-16T06:49:11.319Z,7.30
2022-09-16T06:51:39.825Z,7.35
2022-09-16T06:54:09.099Z,5.47
2022-09-16T06:56:39.764Z,6.25
2022-09-16T06:59:08.199Z,6.28
2022-09-16T07:01:35.842Z,5.65
2022-09-16T07:04:07.333Z,7.35
2022-09-16T07:07:05.194Z,6.65
2022-09-16T07:09:23.002Z,5.60
2022-09-16T07:11:50.512Z,7.22
2022-09-16T07:14:17.841Z,4.80
2022-09-16T07:16:45.194Z,8.27
2022-09-16T07:19:13.564Z,12.77
2022-09-16T07:21:44.177Z,9.50
2022-09-16T07:24:14.346Z,5.43
2022-09-16T07:26:44.004Z,6.78
2022-09-16T07:29:18.534Z,5.25
2022-09-16T07:31:45.816Z,6.40
2022-09-16T07:34:13.971Z,6.35
2022-09-16T07:36:45.908Z,6.05
2022-09-16T07:39:16.755Z,4.15
2022-09-16T07:41:46.672Z,5.93
2022-09-16T07:44:18.246Z,5.70
2022-09-16T07:46:45.632Z,8.15
2022-09-16T07:49:15.749Z,6.93
2022-09-16T07:51:44.150Z,6.85
2022-09-16T07:54:15.928Z,4.13
2022-09-16T07:56:45.017Z,5.60
2022-09-16T07:59:18.552Z,5.40
2022-09-16T08:01:48.488Z,5.53
2022-09-16T08:04:17.167Z,5.32
2022-09-16T08:06:45.526Z,6.78
2022-09-16T08:09:37.229Z,4.13
2022-09-16T08:12:02.718Z,5.25
2022-09-16T08:14:30.089Z,4.00
2022-09-16T08:16:57.908Z,3.70
2022-09-16T08:19:27.318Z,5.65
2022-09-16T08:21:54.690Z,5.67
2022-09-16T08:24:23.476Z,5.22
2022-09-16T08:26:51.145Z,4.95
2022-09-16T08:29:18.608Z,6.47
2022-09-16T08:31:47.339Z,6.97
2022-09-16T08:34:16.059Z,5.65
2022-09-16T08:36:43.635Z,5.18
2022-09-16T08:39:12.069Z,4.40
2022-09-16T08:42:24.915Z,5.75
2022-09-16T08:46:10.301Z,10.85
2022-09-16T08:48:55.845Z,10.18
2022-09-16T08:51:23.621Z,8.10
2022-09-16T08:54:03.937Z,6.10
2022-09-16T08:56:38.641Z,3.67
2022-09-16T08:59:19.508Z,4.90
2022-09-16T09:02:20.842Z,8.27
2022-09-16T09:04:48.805Z,4.37
2022-09-16T09:07:47.057Z,6.57
2022-09-16T09:10:51.801Z,6.83
2022-09-16T09:13:31.911Z,10.02
2022-09-16T09:16:13.202Z,7.05
2022-09-16T09:19:30.281Z,4.28
2022-09-16T09:22:23.363Z,4.15
2022-09-16T09:25:24.968Z,4.90
2022-09-16T09:28:05.857Z,6.47
2022-09-16T09:30:39.205Z,5.68
2022-09-16T09:33:45.932Z,6.32
2022-09-16T09:36:43.576Z,2.97
2022-09-16T09:39:38.614Z,3.92
2022-09-16T09:42:36.138Z,4.95
2022-09-16T09:45:24.566Z,4.85
2022-09-16T09:48:06.726Z,6.15
2022-09-16T09:50:50.239Z,7.70
2022-09-16T09:53:57.244Z,5.95
2022-09-16T09:56:45.976Z,3.95
2022-09-16T09:59:59.251Z,5.75
2022-09-16T10:02:35.806Z,6.45
2022-09-16T10:05:08.184Z,4.07
2022-09-16T10:07:41.471Z,5.77
2022-09-16T10:10:21.807Z,7.65
2022-09-16T10:12:50.174Z,8.07
2022-09-16T10:15:30.214Z,5.03
2022-09-16T10:18:03.406Z,4.00
2022-09-16T10:20:39.725Z,6.00
2022-09-16T10:23:16.785Z,5.20
2022-09-16T10:25:46.050Z,6.82
2022-09-16T10:28:26.240Z,6.15
2022-09-16T10:30:58.248Z,9.82
2022-09-16T10:33:34.757Z,8.15
2022-09-16T10:36:08.276Z,6.93
2022-09-16T10:38:43.799Z,6.10
2022-09-16T10:41:30.918Z,6.50
2022-09-16T10:44:17.144Z,4.50
2022-09-16T10:47:09.355Z,7.60
2022-09-16T10:49:47.876Z,11.00
2022-09-16T10:52:23.952Z,4.75
2022-09-16T10:54:52.212Z,5.30
2022-09-16T10:57:42.019Z,5.88
2022-09-16T11:00:32.145Z,6.53
2022-09-16T11:03:16.554Z,6.43
2022-09-16T11:06:08.658Z,5.93
2022-09-16T11:09:08.755Z,6.90
2022-09-16T11:12:11.048Z,6.13
2022-09-16T11:14:47.165Z,6.30
2022-09-16T11:17:56.359Z,8.60
2022-09-16T11:20:23.613Z,5.28
2022-09-16T11:23:00.394Z,6.63
2022-09-16T11:26:12.149Z,5.18
2022-09-16T11:28:51.225Z,6.68
2022-09-16T11:32:20.706Z,9.03
2022-09-16T11:35:39.749Z,10.05
2022-09-16T11:38:26.749Z,8.57
2022-09-16T11:41:03.155Z,6.75
2022-09-16T11:44:37.330Z,5.80
2022-09-16T11:47:13.349Z,4.30
2022-09-16T11:50:15.965Z,5.45
2022-09-16T11:53:41.127Z,5.03
2022-09-16T11:56:32.365Z,6.03
2022-09-16T11:59:37.588Z,5.28
2022-09-16T12:02:52.492Z,5.13
2022-09-16T12:06:16.340Z,6.93
2022-09-16T12:08:59.298Z,7.40
2022-09-16T12:11:44.422Z,4.75
2022-09-16T12:14:32.670Z,5.55
2022-09-16T12:17:08.291Z,5.90
2022-09-16T12:19:55.582Z,6.53
2022-09-16T12:22:58.952Z,4.88
2022-09-16T12:25:52.664Z,8.35
2022-09-16T12:28:50.951Z,9.85
2022-09-16T12:31:42.748Z,4.75
2022-09-16T12:34:29.848Z,6.15
2022-09-16T12:37:20.313Z,3.75
2022-09-16T12:39:50.335Z,9.00
2022-09-16T12:42:51.877Z,5.72
2022-09-16T12:45:57.367Z,4.40
2022-09-16T12:49:17.188Z,4.75
2022-09-16T12:52:11.352Z,4.75
2022-09-16T12:54:45.972Z,6.68
2022-09-16T12:57:58.376Z,6.78
2022-09-16T13:01:09.791Z,4.53
2022-09-16T13:03:47.257Z,4.35
2022-09-16T13:06:30.331Z,4.50
2022-09-16T13:09:15.293Z,4.40
2022-09-16T13:14:46.581Z,5.30
2022-09-16T13:17:14.246Z,5.45
2022-09-16T13:19:53.961Z,3.72
2022-09-16T13:22:42.638Z,4.03
2022-09-16T13:25:21.371Z,5.47
2022-09-16T13:28:32.821Z,7.63
2022-09-16T13:31:33.914Z,5.03
2022-09-16T13:42:21.152Z,8.38
2022-09-16T13:44:56.210Z,4.75
2022-09-16T13:47:40.406Z,6.55
2022-09-16T13:55:18.681Z,3.80
2022-09-16T13:58:45.630Z,7.53
2022-09-16T14:01:59.072Z,6.00
2022-09-16T14:04:49.331Z,5.80
2022-09-16T14:08:04.669Z,4.78
2022-09-16T14:11:07.431Z,5.67
2022-09-16T14:13:51.312Z,7.53
2022-09-16T14:16:31.177Z,7.97
2022-09-16T14:19:06.200Z,8.02
2022-09-16T14:21:34.086Z,8.15
2022-09-16T14:24:38.932Z,7.85
2022-09-16T14:27:20.580Z,6.53
2022-09-16T14:30:19.813Z,6.53
2022-09-16T14:32:49.135Z,6.38
2022-09-16T14:35:24.347Z,6.18
2022-09-16T14:38:14.155Z,7.18
2022-09-16T14:40:51.031Z,6.10
2022-09-16T14:43:22.300Z,7.20
2022-09-16T14:45:55.774Z,7.75
2022-09-16T14:48:32.391Z,7.82
2022-09-16T14:51:01.573Z,6.63
2022-09-16T14:53:36.504Z,6.05
2022-09-16T14:56:06.322Z,5.45
2022-09-16T14:58:36.074Z,6.00
2022-09-16T15:01:25.003Z,5.32
2022-09-16T15:04:19.323Z,4.93
2022-09-16T15:06:54.716Z,6.10
2022-09-16T15:09:57.941Z,5.60
2022-09-16T15:12:48.417Z,5.97
2022-09-16T15:15:32.281Z,5.47
2022-09-16T15:18:19.350Z,6.60
2022-09-16T15:21:02.854Z,5.85
2022-09-16T15:23:32.754Z,9.77
2022-09-16T15:26:26.548Z,6.77
2022-09-16T15:29:05.443Z,7.88
2022-09-16T15:31:44.571Z,6.70
2022-09-16T15:34:26.643Z,7.77
2022-09-16T15:36:57.019Z,8.40
2022-09-16T15:39:34.485Z,10.18
2022-09-16T15:42:23.977Z,7.07
2022-09-16T15:44:59.632Z,6.22
2022-09-16T15:47:33.293Z,9.00
2022-09-16T15:50:08.445Z,6.82
2022-09-16T15:52:55.506Z,7.80
2022-09-16T15:56:19.173Z,8.45
2022-09-16T15:58:53.458Z,6.95
2022-09-16T16:01:43.642Z,6.70
2022-09-16T16:04:24.746Z,7.93
2022-09-16T16:07:00.855Z,5.82
2022-09-16T16:09:29.397Z,7.57
2022-09-16T16:12:20.176Z,6.93
2022-09-16T16:14:47.948Z,7.88
2022-09-16T16:17:21.118Z,5.57
2022-09-16T16:19:50.684Z,8.45
2022-09-16T16:22:18.204Z,8.27
2022-09-16T16:24:45.559Z,6.60
2022-09-16T16:27:14.171Z,6.43
2022-09-16T16:29:41.615Z,7.95
2022-09-16T16:32:16.841Z,7.03
2022-09-16T16:34:50.224Z,7.97
2022-09-16T16:37:44.350Z,13.27
2022-09-16T16:40:08.243Z,9.27
2022-09-16T16:42:37.132Z,10.82
2022-09-16T16:45:05.169Z,9.63
2022-09-16T16:47:34.443Z,7.78
2022-09-16T16:50:05.290Z,8.87
2022-09-16T16:52:32.977Z,9.02
2022-09-16T16:55:01.768Z,9.18
2022-09-16T16:57:29.412Z,8.05
2022-09-16T16:59:56.712Z,7.28
2022-09-16T17:02:24.367Z,8.50
2022-09-16T17:04:51.789Z,5.80
2022-09-16T17:07:26.099Z,8.75
2022-09-16T17:09:54.795Z,7.30
2022-09-16T17:12:22.033Z,7.40
2022-09-16T17:14:49.466Z,6.75
2022-09-16T17:17:27.603Z,5.70
2022-09-16T17:19:58.203Z,4.53
2022-09-16T17:22:25.584Z,4.60
2022-09-16T17:24:52.899Z,4.97
2022-09-16T17:27:20.782Z,6.13
2022-09-16T17:29:50.337Z,6.95
2022-09-16T17:32:17.834Z,6.65
2022-09-16T17:34:45.208Z,6.55
2022-09-16T17:37:15.198Z,4.68
2022-09-16T17:39:42.665Z,6.43
2022-09-16T17:42:10.033Z,6.27
2022-09-16T17:44:43.334Z,5.35
2022-09-16T17:47:10.618Z,5.47
2022-09-16T17:49:40.695Z,7.10
2022-09-16T17:52:08.235Z,5.68
2022-09-16T17:54:35.603Z,6.20
2022-09-16T17:57:04.331Z,6.90
2022-09-16T17:59:35.064Z,9.87
2022-09-16T18:02:02.355Z,7.28
2022-09-16T18:04:32.811Z,9.40
2022-09-16T18:07:01.427Z,10.32
2022-09-16T18:09:31.023Z,8.83
2022-09-16T18:11:58.774Z,8.23
2022-09-16T18:14:26.068Z,10.23
2022-09-16T18:16:56.232Z,9.53
2022-09-16T18:19:26.531Z,8.90
2022-09-16T18:21:53.995Z,9.35
2022-09-16T18:24:21.411Z,9.60
2022-09-16T18:26:49.544Z,8.18
2022-09-16T18:29:17.176Z,8.40
2022-09-16T18:31:48.637Z,8.13
2022-09-16T18:34:17.798Z,8.90
2022-09-16T18:36:45.853Z,9.75
2022-09-16T18:39:18.522Z,13.38
2022-09-16T18:41:46.605Z,8.60
2022-09-16T18:44:19.926Z,8.57
2022-09-16T18:46:48.048Z,10.27
2022-09-16T18:49:18.024Z,9.07
2022-09-16T18:51:53.981Z,8.48
2022-09-16T18:54:30.014Z,7.60
2022-09-16T18:57:00.426Z,9.57
2022-09-16T18:59:31.841Z,12.13
2022-09-16T19:02:03.964Z,8.30
2022-09-16T19:04:39.086Z,11.13
2022-09-16T19:07:13.530Z,11.20
2022-09-16T19:09:41.213Z,11.30
2022-09-16T19:12:13.910Z,10.27
2022-09-16T19:14:41.807Z,9.88
2022-09-16T19:17:10.599Z,10.10
2022-09-16T19:19:41.286Z,10.30
2022-09-16T19:22:08.878Z,9.18
2022-09-16T19:24:37.287Z,9.40
2022-09-16T19:27:08.162Z,11.57
2022-09-16T19:29:35.987Z,11.10
2022-09-16T19:32:03.424Z,11.87
2022-09-16T19:34:30.941Z,11.27
2022-09-16T19:36:59.347Z,11.23
2022-09-16T19:39:27.235Z,12.55
2022-09-16T19:41:55.357Z,9.77
2022-09-16T19:44:25.208Z,10.73
2022-09-16T19:46:53.063Z,11.87
2022-09-16T19:49:23.095Z,8.32
2022-09-16T19:51:57.316Z,10.57
2022-09-16T19:54:24.942Z,10.43
2022-09-16T19:56:53.424Z,10.70
2022-09-16T19:59:20.840Z,10.97
2022-09-16T20:01:49.400Z,12.65
2022-09-16T20:04:21.020Z,11.32
2022-09-16T20:06:49.848Z,10.80
2022-09-16T20:09:19.953Z,11.13
2022-09-16T20:11:49.559Z,11.57
2022-09-16T20:14:21.310Z,12.73
2022-09-16T20:16:50.844Z,12.23
2022-09-16T20:19:20.185Z,11.98
2022-09-16T20:21:48.034Z,11.07
2022-09-16T20:24:23.331Z,10.53
2022-09-16T20:26:55.667Z,12.30
2022-09-16T20:29:23.181Z,10.53
2022-09-16T20:31:52.869Z,8.10
2022-09-16T20:34:23.319Z,8.40
2022-09-16T20:36:50.856Z,7.00
2022-09-16T20:39:18.411Z,9.05
2022-09-16T20:41:49.770Z,5.90
2022-09-16T20:44:17.370Z,7.77
2022-09-16T20:46:44.731Z,6.50
2022-09-16T20:49:16.749Z,9.07
2022-09-16T20:51:45.006Z,7.22
2022-09-16T20:54:16.773Z,6.30
2022-09-16T20:56:50.977Z,6.22
2022-09-16T20:59:20.411Z,5.95
2022-09-16T21:01:49.420Z,5.82
2022-09-16T21:04:20.363Z,4.75
2022-09-16T21:06:47.996Z,5.00
2022-09-16T21:09:16.544Z,5.93
2022-09-16T21:11:45.010Z,5.88
2022-09-16T21:14:16.236Z,5.15
2022-09-16T21:16:49.052Z,4.50
2022-09-16T21:19:17.727Z,5.13
2022-09-16T21:21:47.687Z,5.82
2022-09-16T21:24:16.408Z,6.73
2022-09-16T21:26:46.212Z,6.25
2022-09-16T21:29:18.905Z,6.55
2022-09-16T21:31:46.276Z,5.40
2022-09-16T21:34:17.174Z,5.03
2022-09-16T21:36:45.240Z,6.30
2022-09-16T21:39:14.998Z,7.30
2022-09-16T21:41:44.651Z,7.00
2022-09-16T21:44:13.678Z,6.32
2022-09-16T21:46:45.418Z,6.07
2022-09-16T21:49:30.086Z,8.07
2022-09-16T21:51:58.921Z,4.63
2022-09-16T21:54:28.082Z,7.07
2022-09-16T21:56:56.865Z,6.72
2022-09-16T21:59:24.823Z,6.75
2022-09-16T22:01:52.772Z,6.03
2022-09-16T22:04:23.375Z,6.25
2022-09-16T22:07:10.819Z,7.00
2022-09-16T22:09:38.234Z,5.93
2022-09-16T22:12:06.923Z,5.65
2022-09-16T22:14:34.172Z,8.25
2022-09-16T22:17:02.496Z,6.13
2022-09-16T22:19:30.360Z,7.75
2022-09-16T22:21:58.632Z,7.10
2022-09-16T22:24:26.967Z,7.03
2022-09-16T22:26:54.318Z,7.55
2022-09-16T22:29:21.634Z,5.85
2022-09-16T22:31:49.019Z,5.40
2022-09-16T22:34:16.643Z,5.20
2022-09-16T22:36:43.844Z,5.53
2022-09-16T22:39:17.840Z,5.60
2022-09-16T22:41:46.567Z,6.53
2022-09-16T22:44:14.616Z,5.15
2022-09-16T22:46:45.823Z,6.55
2022-09-16T22:49:14.958Z,5.10
2022-09-16T22:51:43.213Z,6.13
2022-09-16T22:54:14.031Z,4.65
2022-09-16T22:56:42.267Z,5.95
2022-09-16T22:59:18.354Z,4.28
2022-09-16T23:01:46.715Z,5.28
2022-09-16T23:04:14.302Z,5.25
2022-09-16T23:06:42.191Z,5.53
2022-09-16T23:09:16.074Z,5.35
2022-09-16T23:11:44.157Z,6.10
2022-09-16T23:14:21.893Z,6.80
2022-09-16T23:16:49.199Z,4.60
2022-09-16T23:19:16.936Z,6.97
2022-09-16T23:21:45.405Z,4.00
2022-09-16T23:24:20.715Z,4.75
2022-09-16T23:26:49.462Z,6.45
2022-09-16T23:29:18.501Z,7.37
2022-09-16T23:31:46.440Z,4.57
2022-09-16T23:34:22.082Z,5.40
2022-09-16T23:36:50.548Z,4.82
2022-09-16T23:39:19.191Z,6.37
2022-09-16T23:41:47.267Z,4.43
2022-09-16T23:44:16.041Z,3.88
2022-09-16T23:46:44.253Z,8.43
2022-09-16T23:49:12.267Z,6.45
2022-09-16T23:51:41.950Z,4.68
2022-09-16T23:54:09.273Z,5.38
2022-09-16T23:56:37.119Z,6.35
2022-09-16T23:59:04.447Z,6.20
